Statsraad Lehmkuhl — LDRG — position and weather

sailwx.info

Track history (hours):
 
Tides and Currents Weather Stations Pressure Air Temp Water Temp Dewpoint Dewpoint Depression Visibility Wind Speed Wind Dir Waves Ship Positions

Statsraad Lehmkuhl (Norway)

Ship's website: http://www.lehmkuhl.no/eng/index.cfm

Last reported at 2017-Jul-26 13:54 UTC. Time now 2017-Jul-28 06:34 UTC.
Position N 55°18' E 019°56'.

Length 85 m; draft 5.2 m.

Type: Sailing vessel. MMSI: 258113000.

Date/timePositionNaut miles runAvg speedWind from/ knotsBaromVisibWave heightAir tempDewpointWater temp
2017-Jul-26 13:54N 55°18' E 019°56'3 7.1
2017-Jul-26 13:30N 55°21' E 019°55'4 7.2
2017-Jul-26 13:01N 55°25' E 019°54'16 7.9
2017-Jul-26 10:57N 55°41' E 019°50'17 8.6
2017-Jul-26 08:58N 55°58' E 019°46'6 8.3
2017-Jul-26 08:13N 56°04' E 019°47'5 6.2
2017-Jul-26 07:28N 56°02' E 019°55'15 1.5
2017-Jul-25 21:51N 56°16' E 019°46'5 8.7
2017-Jul-25 21:18N 56°19' E 019°38'20 9.7
2017-Jul-25 19:15N 56°28' E 019°06'310.3
2017-Jul-25 18:59N 56°29' E 019°02'1110.9
2017-Jul-25 17:57N 56°34' E 018°44'811.8
2017-Jul-25 17:16N 56°39' E 018°32'148 6.7
2017-Jul-24 19:12N 59°02' E 019°35'1 5.9
2017-Jul-24 18:59N 59°03' E 019°37'4 8.2
2017-Jul-24 18:30N 59°06' E 019°43'4 8.1
2017-Jul-24 18:00N 59°08' E 019°49'4 7.3
2017-Jul-24 17:30N 59°10' E 019°55'4 7.5
2017-Jul-24 17:00N 59°12' E 020°01'4 7.7
2017-Jul-24 16:30N 59°14' E 020°08'4 8.3
2017-Jul-24 16:00N 59°16' E 020°15'26 8.8
2017-Jul-24 13:00N 59°30' E 020°58'3 6.6
2017-Jul-24 12:30N 59°33' E 021°03'3 6.6
2017-Jul-24 12:00N 59°35' E 021°08'3 7.0
2017-Jul-24 11:30N 59°37' E 021°13'3 5.2
2017-Jul-24 11:00N 59°39' E 021°16'2 4.0
2017-Jul-24 10:30N 59°41' E 021°17'1 1.9
2017-Jul-24 10:00N 59°42' E 021°18'1 2.0
2017-Jul-24 09:31N 59°43' E 021°18'0 0.1
2017-Jul-24 09:01N 59°43' E 021°18'0 0.0
2017-Jul-24 08:30N 59°43' E 021°18'0 0.0
2017-Jul-24 08:01N 59°43' E 021°18'0 0.0
2017-Jul-24 07:31N 59°43' E 021°18'0 0.0
2017-Jul-24 07:01N 59°43' E 021°18'0 0.0
2017-Jul-24 06:30N 59°43' E 021°18'0 0.0
2017-Jul-24 06:01N 59°43' E 021°18'0 0.0
2017-Jul-24 05:30N 59°43' E 021°18'0 0.0
2017-Jul-24 05:00N 59°43' E 021°18'0 0.0
2017-Jul-24 04:31N 59°43' E 021°18'0 0.0
2017-Jul-24 04:01N 59°43' E 021°18'0 0.0
2017-Jul-24 03:31N 59°43' E 021°18'0 0.0
2017-Jul-24 03:01N 59°43' E 021°18'0 0.0
2017-Jul-24 02:30N 59°43' E 021°18'0 0.0
2017-Jul-24 02:01N 59°43' E 021°18'0 0.0
2017-Jul-24 01:31N 59°43' E 021°18'0 0.0
2017-Jul-24 01:01N 59°43' E 021°18'0 0.0
2017-Jul-24 00:30N 59°43' E 021°18'0 0.0
2017-Jul-24 00:00N 59°43' E 021°18'0 0.0
2017-Jul-23 23:31N 59°43' E 021°18'0 0.0
2017-Jul-23 23:01N 59°43' E 021°18'0 0.0
2017-Jul-23 22:30N 59°43' E 021°18'0 0.0
2017-Jul-23 22:01N 59°43' E 021°18'0 0.0
2017-Jul-23 21:30N 59°43' E 021°18'0 0.0
2017-Jul-23 21:00N 59°43' E 021°18'0 0.0
2017-Jul-23 20:31N 59°43' E 021°18'0 0.1
2017-Jul-23 20:00N 59°43' E 021°18'2 3.8
2017-Jul-23 19:31N 59°44' E 021°20'5 9.2
2017-Jul-23 19:00N 59°49' E 021°21'5 9.3
2017-Jul-23 18:30N 59°52' E 021°28'5 9.2
2017-Jul-23 18:00N 59°55' E 021°35'5 9.2
2017-Jul-23 17:31N 59°58' E 021°41'5 9.7
2017-Jul-23 17:00N 60°03' E 021°41'5 9.8
2017-Jul-23 16:30N 60°08' E 021°41'4 8.6
2017-Jul-23 16:00N 60°12' E 021°43'4 7.2
2017-Jul-23 15:30N 60°14' E 021°49'4 8.5
2017-Jul-23 15:00N 60°16' E 021°56'4 7.6
2017-Jul-23 14:30N 60°18' E 022°02'3 6.2
2017-Jul-23 14:01N 60°21' E 022°05'3 5.5
2017-Jul-23 13:30N 60°24' E 022°07'2 3.1
2017-Jul-23 13:00N 60°25' E 022°08'2 3.1
2017-Jul-23 12:30N 60°26' E 022°11'1 2.5
2017-Jul-23 12:00N 60°26' E 022°14'0 0.3
2017-Jul-23 11:30N 60°26' E 022°14'0 0.0
2017-Jul-23 10:59N 60°26' E 022°14'0 0.0
2017-Jul-23 10:30N 60°26' E 022°14'0 0.0
2017-Jul-23 10:00N 60°26' E 022°14'0 0.0
2017-Jul-23 09:30N 60°26' E 022°14'0 0.0
2017-Jul-23 08:58N 60°26' E 022°14'0 0.0
2017-Jul-23 08:28N 60°26' E 022°14'0 0.0
2017-Jul-23 07:59N 60°26' E 022°14'0 0.0
2017-Jul-23 07:29N 60°26' E 022°14'0 0.0
2017-Jul-23 06:54N 60°26' E 022°14'0 0.0
2017-Jul-23 06:30N 60°26' E 022°14'0 0.0
2017-Jul-23 06:00N 60°26' E 022°14'0 0.0
2017-Jul-23 05:30N 60°26' E 022°14'0 0.0
2017-Jul-23 05:00N 60°26' E 022°14'0 0.0
2017-Jul-23 04:28N 60°26' E 022°14'0 0.0
2017-Jul-23 03:55N 60°26' E 022°14'0 0.0
2017-Jul-23 03:29N 60°26' E 022°14'0 0.0
2017-Jul-23 02:59N 60°26' E 022°14'0 0.0
2017-Jul-23 02:29N 60°26' E 022°14'0 0.0
2017-Jul-23 02:00N 60°26' E 022°14'0 0.0
2017-Jul-23 01:30N 60°26' E 022°14'0 0.0
2017-Jul-23 00:51N 60°26' E 022°14'0 0.0
2017-Jul-23 00:31N 60°26' E 022°14'0 0.0
2017-Jul-22 23:58N 60°26' E 022°14'0 0.0
2017-Jul-22 23:22N 60°26' E 022°14'0 0.0
2017-Jul-22 22:59N 60°26' E 022°14'0 0.0
2017-Jul-22 22:29N 60°26' E 022°14'0 0.0
2017-Jul-22 21:59N 60°26' E 022°14'0 0.0
2017-Jul-22 21:30N 60°26' E 022°14'0 0.0
2017-Jul-22 20:59N 60°26' E 022°14'0 0.0
2017-Jul-22 20:29N 60°26' E 022°14'0 0.0
2017-Jul-22 19:59N 60°26' E 022°14'0 0.0
2017-Jul-22 19:29N 60°26' E 022°14'0 0.0
2017-Jul-22 18:55N 60°26' E 022°14'0 0.0
2017-Jul-22 18:29N 60°26' E 022°14'0 0.0
2017-Jul-22 17:59N 60°26' E 022°14'0 0.0
2017-Jul-22 17:26N 60°26' E 022°14'0 0.0
2017-Jul-22 17:00N 60°26' E 022°14'0 0.0
2017-Jul-22 16:30N 60°26' E 022°14'0 0.0
2017-Jul-22 16:00N 60°26' E 022°14'0 0.0
2017-Jul-22 15:28N 60°26' E 022°14'0 0.0
2017-Jul-22 14:58N 60°26' E 022°14'0 0.0
2017-Jul-22 13:59N 60°26' E 022°14'0 0.0
2017-Jul-22 13:29N 60°26' E 022°14'0 0.0
2017-Jul-22 12:56N 60°26' E 022°14'0 0.0
2017-Jul-22 12:30N 60°26' E 022°14'0 0.0
2017-Jul-22 12:00N 60°26' E 022°14'0 0.0
2017-Jul-22 11:30N 60°26' E 022°14'0 0.0
2017-Jul-22 10:58N 60°26' E 022°14'0 0.0
2017-Jul-22 10:28N 60°26' E 022°14'0 0.0
2017-Jul-22 09:58N 60°26' E 022°14'0 0.0
2017-Jul-22 09:29N 60°26' E 022°14'0 0.0
2017-Jul-22 08:59N 60°26' E 022°14'0 0.0
2017-Jul-22 08:29N 60°26' E 022°14'0 0.0
2017-Jul-22 08:00N 60°26' E 022°14'0 0.0
2017-Jul-22 07:30N 60°26' E 022°14'0 0.0
2017-Jul-22 07:00N 60°26' E 022°14'0 0.0
2017-Jul-22 06:28N 60°26' E 022°14'0 0.0
2017-Jul-22 05:58N 60°26' E 022°14'0 0.0
2017-Jul-22 05:28N 60°26' E 022°14'0 0.0
2017-Jul-22 04:59N 60°26' E 022°14'0 0.0
2017-Jul-22 04:29N 60°26' E 022°14'0 0.0
2017-Jul-22 03:59N 60°26' E 022°14'0 0.0
2017-Jul-22 03:30N 60°26' E 022°14'0 0.0
2017-Jul-22 02:57N 60°26' E 022°14'0 0.0
2017-Jul-22 02:30N 60°26' E 022°14'0 0.0
2017-Jul-22 01:58N 60°26' E 022°14'0 0.0
2017-Jul-22 01:28N 60°26' E 022°14'0 0.0
2017-Jul-22 00:58N 60°26' E 022°14'0 0.0
2017-Jul-22 00:29N 60°26' E 022°14'0 0.0
2017-Jul-21 23:59N 60°26' E 022°14'0 0.0
2017-Jul-21 23:29N 60°26' E 022°14'0 0.0
2017-Jul-21 23:00N 60°26' E 022°14'0 0.0
2017-Jul-21 22:30N 60°26' E 022°14'0 0.0
2017-Jul-21 22:00N 60°26' E 022°14'0 0.0
2017-Jul-21 21:28N 60°26' E 022°14'0 0.0
2017-Jul-21 20:58N 60°26' E 022°14'0 0.0
2017-Jul-21 20:28N 60°26' E 022°14'0 0.0
2017-Jul-21 19:59N 60°26' E 022°14'0 0.0
2017-Jul-21 19:29N 60°26' E 022°14'0 0.0
2017-Jul-21 18:59N 60°26' E 022°14'0 0.0
2017-Jul-21 18:30N 60°26' E 022°14'0 0.0
2017-Jul-21 18:00N 60°26' E 022°14'0 0.0
2017-Jul-21 17:27N 60°26' E 022°14'0 0.0
2017-Jul-21 16:58N 60°26' E 022°14'0 0.0
2017-Jul-21 16:29N 60°26' E 022°14'0 0.0
2017-Jul-21 15:58N 60°26' E 022°14'0 0.0
2017-Jul-21 15:29N 60°26' E 022°14'0 0.0
2017-Jul-21 14:59N 60°26' E 022°14'0 0.0
2017-Jul-21 14:29N 60°26' E 022°14'0 0.0
2017-Jul-21 14:00N 60°26' E 022°14'0 0.0
2017-Jul-21 13:30N 60°26' E 022°14'0 0.0
2017-Jul-21 13:00N 60°26' E 022°14'0 0.0
2017-Jul-21 12:28N 60°26' E 022°14'0 0.0
2017-Jul-21 11:58N 60°26' E 022°14'0 0.0
2017-Jul-21 11:28N 60°26' E 022°14'0 0.0
2017-Jul-21 10:59N 60°26' E 022°14'0 0.0
2017-Jul-21 10:29N 60°26' E 022°14'0 0.0
2017-Jul-21 09:59N 60°26' E 022°14'0 0.0
2017-Jul-21 09:30N 60°26' E 022°14'0 0.0
2017-Jul-21 09:00N 60°26' E 022°14'0 0.0
2017-Jul-21 08:30N 60°26' E 022°14'0 0.0
2017-Jul-21 07:58N 60°26' E 022°14'0 0.0
2017-Jul-21 07:28N 60°26' E 022°14'0 0.0
2017-Jul-21 06:58N 60°26' E 022°14'0 0.0
2017-Jul-21 06:29N 60°26' E 022°14'0 0.0
2017-Jul-21 05:59N 60°26' E 022°14'0 0.0
2017-Jul-21 05:29N 60°26' E 022°14'0 0.0
2017-Jul-21 05:00N 60°26' E 022°14'0 0.0
2017-Jul-21 04:30N 60°26' E 022°14'0 0.0
2017-Jul-21 04:00N 60°26' E 022°14'0 0.0
2017-Jul-21 03:28N 60°26' E 022°14'0 0.0
2017-Jul-21 02:58N 60°26' E 022°14'0 0.0
2017-Jul-21 02:28N 60°26' E 022°14'0 0.0
2017-Jul-21 01:59N 60°26' E 022°14'0 0.0
2017-Jul-21 01:29N 60°26' E 022°14'0 0.0
2017-Jul-21 00:59N 60°26' E 022°14'0 0.0
2017-Jul-21 00:30N 60°26' E 022°14'0 0.0
2017-Jul-20 23:57N 60°26' E 022°14'0 0.0
2017-Jul-20 23:30N 60°26' E 022°14'0 0.0
2017-Jul-20 22:58N 60°26' E 022°14'0 0.0
2017-Jul-20 22:25N 60°26' E 022°14'0 0.0
2017-Jul-20 21:59N 60°26' E 022°14'0 0.0
2017-Jul-20 21:29N 60°26' E 022°14'0 0.0
2017-Jul-20 21:00N 60°26' E 022°14'0 0.0
2017-Jul-20 20:25N 60°26' E 022°14'0 0.0
2017-Jul-20 19:59N 60°26' E 022°14'0 0.0
2017-Jul-20 19:27N 60°26' E 022°14'0 0.0
2017-Jul-20 18:58N 60°26' E 022°14'0 0.0
2017-Jul-20 18:28N 60°26' E 022°14'0 0.0
2017-Jul-20 17:58N 60°26' E 022°14'0 0.0
2017-Jul-20 17:28N 60°26' E 022°14'0 0.0
2017-Jul-20 16:59N 60°26' E 022°14'0 0.0
2017-Jul-20 16:30N 60°26' E 022°14'0 0.0
2017-Jul-20 15:59N 60°26' E 022°14'0 0.0
2017-Jul-20 15:30N 60°26' E 022°14'0 0.0
2017-Jul-20 15:00N 60°26' E 022°14'0 0.0
2017-Jul-20 13:58N 60°26' E 022°14'0 0.0
2017-Jul-20 13:28N 60°26' E 022°14'0 0.0
2017-Jul-20 12:59N 60°26' E 022°14'0 0.0
2017-Jul-20 12:29N 60°26' E 022°14'0 0.0
2017-Jul-20 11:53N 60°26' E 022°14'0 0.0
2017-Jul-20 11:30N 60°26' E 022°14'0 0.0
2017-Jul-20 11:00N 60°26' E 022°14'0 0.0
2017-Jul-20 10:24N 60°26' E 022°14'0 0.0
2017-Jul-20 10:00N 60°26' E 022°14'0 0.7
2017-Jul-20 09:30N 60°26' E 022°13'0 0.7
2017-Jul-20 09:00N 60°26' E 022°13'2 3.8
2017-Jul-20 08:30N 60°25' E 022°09'4 8.1
2017-Jul-20 08:00N 60°22' E 022°06'4 8.4
2017-Jul-20 07:30N 60°18' E 022°02'4 8.4
2017-Jul-20 07:00N 60°16' E 021°55'4 8.7
2017-Jul-20 06:30N 60°14' E 021°47'4 7.1
2017-Jul-20 06:00N 60°11' E 021°42'4 8.1
2017-Jul-20 05:30N 60°07' E 021°41'4 8.0
2017-Jul-20 05:00N 60°03' E 021°41'4 7.9
2017-Jul-20 04:30N 59°59' E 021°42'4 7.7
2017-Jul-20 04:00N 59°56' E 021°39'4 8.0
2017-Jul-20 03:31N 59°53' E 021°33'5 9.1
2017-Jul-20 03:00N 59°51' E 021°25'4 7.3
2017-Jul-20 02:30N 59°48' E 021°20'4 7.4
2017-Jul-20 02:01N 59°45' E 021°21'4 7.3
2017-Jul-20 01:31N 59°41' E 021°19'3 5.2
2017-Jul-20 01:00N 59°39' E 021°17'2 4.3
2017-Jul-20 00:30N 59°37' E 021°15'3 6.4
2017-Jul-20 00:00N 59°34' E 021°11'4 7.1
2017-Jul-19 23:31N 59°31' E 021°07'4 7.7
2017-Jul-19 23:00N 59°28' E 021°03'3 6.7
2017-Jul-19 22:30N 59°25' E 020°59'3 5.7
2017-Jul-19 22:01N 59°23' E 020°55'2 3.8
2017-Jul-19 21:31N 59°22' E 020°53'2 3.4
2017-Jul-19 21:00N 59°21' E 020°51'2 4.3
2017-Jul-19 20:30N 59°19' E 020°48'2 4.3
2017-Jul-19 20:00N 59°17' E 020°45'2 3.9
2017-Jul-19 19:30N 59°16' E 020°43'2 3.3
2017-Jul-19 19:00N 59°15' E 020°41'3 5.2
2017-Jul-19 18:31N 59°13' E 020°37'3 6.9
2017-Jul-19 18:00N 59°10' E 020°33'3 6.2
2017-Jul-19 17:30N 59°07' E 020°29'2 5.0
2017-Jul-19 17:01N 59°06' E 020°26'2 4.6
2017-Jul-19 16:31N 59°04' E 020°23'2 4.3
2017-Jul-19 16:00N 59°02' E 020°20'2 3.5
2017-Jul-19 15:31N 59°01' E 020°18'2 2.8
2017-Jul-19 14:53N 58°60' E 020°16'1 2.6
2017-Jul-19 14:30N 58°59' E 020°14'0 0.2
2017-Jul-19 13:54N 58°59' E 020°14'2 4.5
2017-Jul-19 13:25N 59°00' E 020°18'2 4.7
2017-Jul-19 13:00N 59°02' E 020°21'3 5.5
2017-Jul-19 12:30N 59°03' E 020°25'3 6.4
2017-Jul-19 12:00N 59°05' E 020°30'4 7.3
2017-Jul-19 11:30N 59°08' E 020°35'5 9.3
2017-Jul-19 11:00N 59°10' E 020°42'3 6.8
2017-Jul-19 10:31N 59°12' E 020°48'5 9.8
2017-Jul-19 10:00N 59°09' E 020°40'510.1
2017-Jul-19 09:30N 59°06' E 020°33'5 9.0
2017-Jul-19 08:59N 59°03' E 020°25'4 8.0
2017-Jul-19 08:29N 59°01' E 020°19'22 6.4
2017-Jul-19 05:00N 58°49' E 019°42'2 4.9
2017-Jul-19 04:30N 58°48' E 019°38'2 4.9
2017-Jul-19 04:00N 58°46' E 019°34'3 5.9
2017-Jul-19 03:25N 58°44' E 019°30'2 3.0
2017-Jul-19 02:46N 58°42' E 019°27'1 2.6
2017-Jul-19 02:23N 58°42' E 019°26'2 1.3
2017-Jul-19 01:13N 58°40' E 019°24'0 1.2
2017-Jul-19 00:55N 58°40' E 019°24'0 0.9
2017-Jul-19 00:30N 58°40' E 019°24'0 0.7
2017-Jul-19 00:00N 58°39' E 019°24'0 0.4
2017-Jul-18 23:30N 58°39' E 019°24'0 0.5
2017-Jul-18 23:00N 58°39' E 019°24'0 0.2
2017-Jul-18 21:57N 58°39' E 019°24'1 1.9
2017-Jul-18 21:24N 58°40' E 019°23'1 3.3
2017-Jul-18 21:00N 58°41' E 019°22'2 4.0
2017-Jul-18 20:30N 58°43' E 019°20'1 2.5
2017-Jul-18 20:00N 58°43' E 019°18'1 2.9
2017-Jul-18 19:30N 58°43' E 019°15'3 6.3
2017-Jul-18 18:59N 58°40' E 019°14'8 8.1
2017-Jul-18 18:00N 58°32' E 019°16'610.1
2017-Jul-18 17:23N 58°26' E 019°20'410.0
2017-Jul-18 17:00N 58°23' E 019°22'5 9.5
2017-Jul-18 16:30N 58°18' E 019°24'149 7.2
2017-Jul-17 19:40N 56°09' E 017°07'2 8.6
2017-Jul-17 19:30N 56°08' E 017°05'4 8.7
2017-Jul-17 19:00N 56°05' E 016°59'4 9.0
2017-Jul-17 18:30N 56°02' E 016°53'5 9.2
2017-Jul-17 18:00N 55°59' E 016°46'4 8.8
2017-Jul-17 17:30N 55°57' E 016°40'5 9.1
2017-Jul-17 17:00N 55°54' E 016°34'4 8.6
2017-Jul-17 16:30N 55°51' E 016°28'4 8.1
2017-Jul-17 16:00N 55°49' E 016°22'4 8.4
2017-Jul-17 15:31N 55°46' E 016°16'4 8.3
2017-Jul-17 15:00N 55°44' E 016°10'4 8.6
2017-Jul-17 14:30N 55°41' E 016°04'4 8.4
2017-Jul-17 14:00N 55°38' E 015°58'4 7.4
2017-Jul-17 13:30N 55°36' E 015°53'3 6.6
2017-Jul-17 13:00N 55°34' E 015°48'4 7.5
2017-Jul-17 12:30N 55°32' E 015°43'4 7.4
2017-Jul-17 12:00N 55°30' E 015°38'4 7.6
2017-Jul-17 11:30N 55°28' E 015°32'4 8.0
2017-Jul-17 11:00N 55°25' E 015°27'4 8.2
2017-Jul-17 10:30N 55°23' E 015°21'4 8.3
2017-Jul-17 10:00N 55°20' E 015°15'4 7.6
2017-Jul-17 09:30N 55°19' E 015°09'3 6.9
2017-Jul-17 09:00N 55°19' E 015°03'3 6.3
2017-Jul-17 08:30N 55°19' E 014°57'3 5.7
2017-Jul-17 08:00N 55°18' E 014°52'3 6.0
2017-Jul-17 07:30N 55°18' E 014°47'3 7.0
2017-Jul-17 07:00N 55°17' E 014°41'5 9.1
2017-Jul-17 06:30N 55°14' E 014°36'4 8.5
2017-Jul-17 06:00N 55°12' E 014°29'4 7.8
2017-Jul-17 05:30N 55°11' E 014°22'4 7.4
2017-Jul-17 05:00N 55°11' E 014°16'4 7.8
2017-Jul-17 04:30N 55°11' E 014°09'4 7.8
2017-Jul-17 04:00N 55°11' E 014°02'4 7.4
2017-Jul-17 03:30N 55°10' E 013°56'4 7.6
2017-Jul-17 03:00N 55°11' E 013°49'3 6.8
2017-Jul-17 02:30N 55°11' E 013°43'4 7.0
2017-Jul-17 01:58N 55°11' E 013°37'14 7.2
2017-Jul-16 23:59N 55°11' E 013°11'3 6.4
2017-Jul-16 23:29N 55°12' E 013°06'3 6.7
2017-Jul-16 22:59N 55°13' E 013°01'3 6.5
2017-Jul-16 22:30N 55°14' E 012°55'3 6.1
2017-Jul-16 22:00N 55°15' E 012°50'4 7.9
2017-Jul-16 21:30N 55°16' E 012°44'4 8.7
2017-Jul-16 20:59N 55°19' E 012°38'4 9.2
2017-Jul-16 20:30N 55°24' E 012°39'5 9.1
2017-Jul-16 20:00N 55°28' E 012°41'4 9.0
2017-Jul-16 19:30N 55°33' E 012°42'4 8.5
2017-Jul-16 19:00N 55°37' E 012°42'4 7.1
2017-Jul-16 18:30N 55°40' E 012°41'4 7.5
2017-Jul-16 18:00N 55°44' E 012°41'4 7.7
2017-Jul-16 17:30N 55°48' E 012°42'4 8.5
2017-Jul-16 17:00N 55°52' E 012°40'4 8.0
2017-Jul-16 16:30N 55°56' E 012°38'4 7.8
2017-Jul-16 16:00N 55°60' E 012°38'4 7.0
2017-Jul-16 15:30N 56°03' E 012°38'4 7.4
2017-Jul-16 15:00N 56°06' E 012°34'4 7.3
2017-Jul-16 14:30N 56°08' E 012°28'5 9.1
2017-Jul-16 14:00N 56°11' E 012°22'  
Track history (hours):
 
Tides and Currents Weather Stations Pressure Air Temp Water Temp Dewpoint Dewpoint Depression Visibility Wind Speed Wind Dir Waves Ship Positions

Statsraad Lehmkuhl (Norway)

Ship's website: http://www.lehmkuhl.no/eng/index.cfm

Last reported at 2017-Jul-26 13:54 UTC. Time now 2017-Jul-28 06:34 UTC.
Position N 55°18' E 019°56'.

Length 85 m; draft 5.2 m.

Type: Sailing vessel. MMSI: 258113000.

Date/timePositionNaut miles runAvg speedWind from/ knotsBaromVisibWave heightAir tempDewpointWater temp
2017-Jul-26 13:54N 55°18' E 019°56'3 7.1
2017-Jul-26 13:30N 55°21' E 019°55'4 7.2
2017-Jul-26 13:01N 55°25' E 019°54'16 7.9
2017-Jul-26 10:57N 55°41' E 019°50'17 8.6
2017-Jul-26 08:58N 55°58' E 019°46'6 8.3
2017-Jul-26 08:13N 56°04' E 019°47'5 6.2
2017-Jul-26 07:28N 56°02' E 019°55'15 1.5
2017-Jul-25 21:51N 56°16' E 019°46'5 8.7
2017-Jul-25 21:18N 56°19' E 019°38'20 9.7
2017-Jul-25 19:15N 56°28' E 019°06'310.3
2017-Jul-25 18:59N 56°29' E 019°02'1110.9
2017-Jul-25 17:57N 56°34' E 018°44'811.8
2017-Jul-25 17:16N 56°39' E 018°32'148 6.7
2017-Jul-24 19:12N 59°02' E 019°35'1 5.9
2017-Jul-24 18:59N 59°03' E 019°37'4 8.2
2017-Jul-24 18:30N 59°06' E 019°43'4 8.1
2017-Jul-24 18:00N 59°08' E 019°49'4 7.3
2017-Jul-24 17:30N 59°10' E 019°55'4 7.5
2017-Jul-24 17:00N 59°12' E 020°01'4 7.7
2017-Jul-24 16:30N 59°14' E 020°08'4 8.3
2017-Jul-24 16:00N 59°16' E 020°15'26 8.8
2017-Jul-24 13:00N 59°30' E 020°58'3 6.6
2017-Jul-24 12:30N 59°33' E 021°03'3 6.6
2017-Jul-24 12:00N 59°35' E 021°08'3 7.0
2017-Jul-24 11:30N 59°37' E 021°13'3 5.2
2017-Jul-24 11:00N 59°39' E 021°16'2 4.0
2017-Jul-24 10:30N 59°41' E 021°17'1 1.9
2017-Jul-24 10:00N 59°42' E 021°18'1 2.0
2017-Jul-24 09:31N 59°43' E 021°18'0 0.1
2017-Jul-24 09:01N 59°43' E 021°18'0 0.0
2017-Jul-24 08:30N 59°43' E 021°18'0 0.0
2017-Jul-24 08:01N 59°43' E 021°18'0 0.0
2017-Jul-24 07:31N 59°43' E 021°18'0 0.0
2017-Jul-24 07:01N 59°43' E 021°18'0 0.0
2017-Jul-24 06:30N 59°43' E 021°18'0 0.0
2017-Jul-24 06:01N 59°43' E 021°18'0 0.0
2017-Jul-24 05:30N 59°43' E 021°18'0 0.0
2017-Jul-24 05:00N 59°43' E 021°18'0 0.0
2017-Jul-24 04:31N 59°43' E 021°18'0 0.0
2017-Jul-24 04:01N 59°43' E 021°18'0 0.0
2017-Jul-24 03:31N 59°43' E 021°18'0 0.0
2017-Jul-24 03:01N 59°43' E 021°18'0 0.0
2017-Jul-24 02:30N 59°43' E 021°18'0 0.0
2017-Jul-24 02:01N 59°43' E 021°18'0 0.0
2017-Jul-24 01:31N 59°43' E 021°18'0 0.0
2017-Jul-24 01:01N 59°43' E 021°18'0 0.0
2017-Jul-24 00:30N 59°43' E 021°18'0 0.0
2017-Jul-24 00:00N 59°43' E 021°18'0 0.0
2017-Jul-23 23:31N 59°43' E 021°18'0 0.0
2017-Jul-23 23:01N 59°43' E 021°18'0 0.0
2017-Jul-23 22:30N 59°43' E 021°18'0 0.0
2017-Jul-23 22:01N 59°43' E 021°18'0 0.0
2017-Jul-23 21:30N 59°43' E 021°18'0 0.0
2017-Jul-23 21:00N 59°43' E 021°18'0 0.0
2017-Jul-23 20:31N 59°43' E 021°18'0 0.1
2017-Jul-23 20:00N 59°43' E 021°18'2 3.8
2017-Jul-23 19:31N 59°44' E 021°20'5 9.2
2017-Jul-23 19:00N 59°49' E 021°21'5 9.3
2017-Jul-23 18:30N 59°52' E 021°28'5 9.2
2017-Jul-23 18:00N 59°55' E 021°35'5 9.2
2017-Jul-23 17:31N 59°58' E 021°41'5 9.7
2017-Jul-23 17:00N 60°03' E 021°41'5 9.8
2017-Jul-23 16:30N 60°08' E 021°41'4 8.6
2017-Jul-23 16:00N 60°12' E 021°43'4 7.2
2017-Jul-23 15:30N 60°14' E 021°49'4 8.5
2017-Jul-23 15:00N 60°16' E 021°56'4 7.6
2017-Jul-23 14:30N 60°18' E 022°02'3 6.2
2017-Jul-23 14:01N 60°21' E 022°05'3 5.5
2017-Jul-23 13:30N 60°24' E 022°07'2 3.1
2017-Jul-23 13:00N 60°25' E 022°08'2 3.1
2017-Jul-23 12:30N 60°26' E 022°11'1 2.5
2017-Jul-23 12:00N 60°26' E 022°14'0 0.3
2017-Jul-23 11:30N 60°26' E 022°14'0 0.0
2017-Jul-23 10:59N 60°26' E 022°14'0 0.0
2017-Jul-23 10:30N 60°26' E 022°14'0 0.0
2017-Jul-23 10:00N 60°26' E 022°14'0 0.0
2017-Jul-23 09:30N 60°26' E 022°14'0 0.0
2017-Jul-23 08:58N 60°26' E 022°14'0 0.0
2017-Jul-23 08:28N 60°26' E 022°14'0 0.0
2017-Jul-23 07:59N 60°26' E 022°14'0 0.0
2017-Jul-23 07:29N 60°26' E 022°14'0 0.0
2017-Jul-23 06:54N 60°26' E 022°14'0 0.0
2017-Jul-23 06:30N 60°26' E 022°14'0 0.0
2017-Jul-23 06:00N 60°26' E 022°14'0 0.0
2017-Jul-23 05:30N 60°26' E 022°14'0 0.0
2017-Jul-23 05:00N 60°26' E 022°14'0 0.0
2017-Jul-23 04:28N 60°26' E 022°14'0 0.0
2017-Jul-23 03:55N 60°26' E 022°14'0 0.0
2017-Jul-23 03:29N 60°26' E 022°14'0 0.0
2017-Jul-23 02:59N 60°26' E 022°14'0 0.0
2017-Jul-23 02:29N 60°26' E 022°14'0 0.0
2017-Jul-23 02:00N 60°26' E 022°14'0 0.0
2017-Jul-23 01:30N 60°26' E 022°14'0 0.0
2017-Jul-23 00:51N 60°26' E 022°14'0 0.0
2017-Jul-23 00:31N 60°26' E 022°14'0 0.0
2017-Jul-22 23:58N 60°26' E 022°14'0 0.0
2017-Jul-22 23:22N 60°26' E 022°14'0 0.0
2017-Jul-22 22:59N 60°26' E 022°14'0 0.0
2017-Jul-22 22:29N 60°26' E 022°14'0 0.0
2017-Jul-22 21:59N 60°26' E 022°14'0 0.0
2017-Jul-22 21:30N 60°26' E 022°14'0 0.0
2017-Jul-22 20:59N 60°26' E 022°14'0 0.0
2017-Jul-22 20:29N 60°26' E 022°14'0 0.0
2017-Jul-22 19:59N 60°26' E 022°14'0 0.0
2017-Jul-22 19:29N 60°26' E 022°14'0 0.0
2017-Jul-22 18:55N 60°26' E 022°14'0 0.0
2017-Jul-22 18:29N 60°26' E 022°14'0 0.0
2017-Jul-22 17:59N 60°26' E 022°14'0 0.0
2017-Jul-22 17:26N 60°26' E 022°14'0 0.0
2017-Jul-22 17:00N 60°26' E 022°14'0 0.0
2017-Jul-22 16:30N 60°26' E 022°14'0 0.0
2017-Jul-22 16:00N 60°26' E 022°14'0 0.0
2017-Jul-22 15:28N 60°26' E 022°14'0 0.0
2017-Jul-22 14:58N 60°26' E 022°14'0 0.0
2017-Jul-22 13:59N 60°26' E 022°14'0 0.0
2017-Jul-22 13:29N 60°26' E 022°14'0 0.0
2017-Jul-22 12:56N 60°26' E 022°14'0 0.0
2017-Jul-22 12:30N 60°26' E 022°14'0 0.0
2017-Jul-22 12:00N 60°26' E 022°14'0 0.0
2017-Jul-22 11:30N 60°26' E 022°14'0 0.0
2017-Jul-22 10:58N 60°26' E 022°14'0 0.0
2017-Jul-22 10:28N 60°26' E 022°14'0 0.0
2017-Jul-22 09:58N 60°26' E 022°14'0 0.0
2017-Jul-22 09:29N 60°26' E 022°14'0 0.0
2017-Jul-22 08:59N 60°26' E 022°14'0 0.0
2017-Jul-22 08:29N 60°26' E 022°14'0 0.0
2017-Jul-22 08:00N 60°26' E 022°14'0 0.0
2017-Jul-22 07:30N 60°26' E 022°14'0 0.0
2017-Jul-22 07:00N 60°26' E 022°14'0 0.0
2017-Jul-22 06:28N 60°26' E 022°14'0 0.0
2017-Jul-22 05:58N 60°26' E 022°14'0 0.0
2017-Jul-22 05:28N 60°26' E 022°14'0 0.0
2017-Jul-22 04:59N 60°26' E 022°14'0 0.0
2017-Jul-22 04:29N 60°26' E 022°14'0 0.0
2017-Jul-22 03:59N 60°26' E 022°14'0 0.0
2017-Jul-22 03:30N 60°26' E 022°14'0 0.0
2017-Jul-22 02:57N 60°26' E 022°14'0 0.0
2017-Jul-22 02:30N 60°26' E 022°14'0 0.0
2017-Jul-22 01:58N 60°26' E 022°14'0 0.0
2017-Jul-22 01:28N 60°26' E 022°14'0 0.0
2017-Jul-22 00:58N 60°26' E 022°14'0 0.0
2017-Jul-22 00:29N 60°26' E 022°14'0 0.0
2017-Jul-21 23:59N 60°26' E 022°14'0 0.0
2017-Jul-21 23:29N 60°26' E 022°14'0 0.0
2017-Jul-21 23:00N 60°26' E 022°14'0 0.0
2017-Jul-21 22:30N 60°26' E 022°14'0 0.0
2017-Jul-21 22:00N 60°26' E 022°14'0 0.0
2017-Jul-21 21:28N 60°26' E 022°14'0 0.0
2017-Jul-21 20:58N 60°26' E 022°14'0 0.0
2017-Jul-21 20:28N 60°26' E 022°14'0 0.0
2017-Jul-21 19:59N 60°26' E 022°14'0 0.0
2017-Jul-21 19:29N 60°26' E 022°14'0 0.0
2017-Jul-21 18:59N 60°26' E 022°14'0 0.0
2017-Jul-21 18:30N 60°26' E 022°14'0 0.0
2017-Jul-21 18:00N 60°26' E 022°14'0 0.0
2017-Jul-21 17:27N 60°26' E 022°14'0 0.0
2017-Jul-21 16:58N 60°26' E 022°14'0 0.0
2017-Jul-21 16:29N 60°26' E 022°14'0 0.0
2017-Jul-21 15:58N 60°26' E 022°14'0 0.0
2017-Jul-21 15:29N 60°26' E 022°14'0 0.0
2017-Jul-21 14:59N 60°26' E 022°14'0 0.0
2017-Jul-21 14:29N 60°26' E 022°14'0 0.0
2017-Jul-21 14:00N 60°26' E 022°14'0 0.0
2017-Jul-21 13:30N 60°26' E 022°14'0 0.0
2017-Jul-21 13:00N 60°26' E 022°14'0 0.0
2017-Jul-21 12:28N 60°26' E 022°14'0 0.0
2017-Jul-21 11:58N 60°26' E 022°14'0 0.0
2017-Jul-21 11:28N 60°26' E 022°14'0 0.0
2017-Jul-21 10:59N 60°26' E 022°14'0 0.0
2017-Jul-21 10:29N 60°26' E 022°14'0 0.0
2017-Jul-21 09:59N 60°26' E 022°14'0 0.0
2017-Jul-21 09:30N 60°26' E 022°14'0 0.0
2017-Jul-21 09:00N 60°26' E 022°14'0 0.0
2017-Jul-21 08:30N 60°26' E 022°14'0 0.0
2017-Jul-21 07:58N 60°26' E 022°14'0 0.0
2017-Jul-21 07:28N 60°26' E 022°14'0 0.0
2017-Jul-21 06:58N 60°26' E 022°14'0 0.0
2017-Jul-21 06:29N 60°26' E 022°14'0 0.0
2017-Jul-21 05:59N 60°26' E 022°14'0 0.0
2017-Jul-21 05:29N 60°26' E 022°14'0 0.0
2017-Jul-21 05:00N 60°26' E 022°14'0 0.0
2017-Jul-21 04:30N 60°26' E 022°14'0 0.0
2017-Jul-21 04:00N 60°26' E 022°14'0 0.0
2017-Jul-21 03:28N 60°26' E 022°14'0 0.0
2017-Jul-21 02:58N 60°26' E 022°14'0 0.0
2017-Jul-21 02:28N 60°26' E 022°14'0 0.0
2017-Jul-21 01:59N 60°26' E 022°14'0 0.0
2017-Jul-21 01:29N 60°26' E 022°14'0 0.0
2017-Jul-21 00:59N 60°26' E 022°14'0 0.0
2017-Jul-21 00:30N 60°26' E 022°14'0 0.0
2017-Jul-20 23:57N 60°26' E 022°14'0 0.0
2017-Jul-20 23:30N 60°26' E 022°14'0 0.0
2017-Jul-20 22:58N 60°26' E 022°14'0 0.0
2017-Jul-20 22:25N 60°26' E 022°14'0 0.0
2017-Jul-20 21:59N 60°26' E 022°14'0 0.0
2017-Jul-20 21:29N 60°26' E 022°14'0 0.0
2017-Jul-20 21:00N 60°26' E 022°14'0 0.0
2017-Jul-20 20:25N 60°26' E 022°14'0 0.0
2017-Jul-20 19:59N 60°26' E 022°14'0 0.0
2017-Jul-20 19:27N 60°26' E 022°14'0 0.0
2017-Jul-20 18:58N 60°26' E 022°14'0 0.0
2017-Jul-20 18:28N 60°26' E 022°14'0 0.0
2017-Jul-20 17:58N 60°26' E 022°14'0 0.0
2017-Jul-20 17:28N 60°26' E 022°14'0 0.0
2017-Jul-20 16:59N 60°26' E 022°14'0 0.0
2017-Jul-20 16:30N 60°26' E 022°14'0 0.0
2017-Jul-20 15:59N 60°26' E 022°14'0 0.0
2017-Jul-20 15:30N 60°26' E 022°14'0 0.0
2017-Jul-20 15:00N 60°26' E 022°14'0 0.0
2017-Jul-20 13:58N 60°26' E 022°14'0 0.0
2017-Jul-20 13:28N 60°26' E 022°14'0 0.0
2017-Jul-20 12:59N 60°26' E 022°14'0 0.0
2017-Jul-20 12:29N 60°26' E 022°14'0 0.0
2017-Jul-20 11:53N 60°26' E 022°14'0 0.0
2017-Jul-20 11:30N 60°26' E 022°14'0 0.0
2017-Jul-20 11:00N 60°26' E 022°14'0 0.0
2017-Jul-20 10:24N 60°26' E 022°14'0 0.0
2017-Jul-20 10:00N 60°26' E 022°14'0 0.7
2017-Jul-20 09:30N 60°26' E 022°13'0 0.7
2017-Jul-20 09:00N 60°26' E 022°13'2 3.8
2017-Jul-20 08:30N 60°25' E 022°09'4 8.1
2017-Jul-20 08:00N 60°22' E 022°06'4 8.4
2017-Jul-20 07:30N 60°18' E 022°02'4 8.4
2017-Jul-20 07:00N 60°16' E 021°55'4 8.7
2017-Jul-20 06:30N 60°14' E 021°47'4 7.1
2017-Jul-20 06:00N 60°11' E 021°42'4 8.1
2017-Jul-20 05:30N 60°07' E 021°41'4 8.0
2017-Jul-20 05:00N 60°03' E 021°41'4 7.9
2017-Jul-20 04:30N 59°59' E 021°42'4 7.7
2017-Jul-20 04:00N 59°56' E 021°39'4 8.0
2017-Jul-20 03:31N 59°53' E 021°33'5 9.1
2017-Jul-20 03:00N 59°51' E 021°25'4 7.3
2017-Jul-20 02:30N 59°48' E 021°20'4 7.4
2017-Jul-20 02:01N 59°45' E 021°21'4 7.3
2017-Jul-20 01:31N 59°41' E 021°19'3 5.2
2017-Jul-20 01:00N 59°39' E 021°17'2 4.3
2017-Jul-20 00:30N 59°37' E 021°15'3 6.4
2017-Jul-20 00:00N 59°34' E 021°11'4 7.1
2017-Jul-19 23:31N 59°31' E 021°07'4 7.7
2017-Jul-19 23:00N 59°28' E 021°03'3 6.7
2017-Jul-19 22:30N 59°25' E 020°59'3 5.7
2017-Jul-19 22:01N 59°23' E 020°55'2 3.8
2017-Jul-19 21:31N 59°22' E 020°53'2 3.4
2017-Jul-19 21:00N 59°21' E 020°51'2 4.3
2017-Jul-19 20:30N 59°19' E 020°48'2 4.3
2017-Jul-19 20:00N 59°17' E 020°45'2 3.9
2017-Jul-19 19:30N 59°16' E 020°43'2 3.3
2017-Jul-19 19:00N 59°15' E 020°41'3 5.2
2017-Jul-19 18:31N 59°13' E 020°37'3 6.9
2017-Jul-19 18:00N 59°10' E 020°33'3 6.2
2017-Jul-19 17:30N 59°07' E 020°29'2 5.0
2017-Jul-19 17:01N 59°06' E 020°26'2 4.6
2017-Jul-19 16:31N 59°04' E 020°23'2 4.3
2017-Jul-19 16:00N 59°02' E 020°20'2 3.5
2017-Jul-19 15:31N 59°01' E 020°18'2 2.8
2017-Jul-19 14:53N 58°60' E 020°16'1 2.6
2017-Jul-19 14:30N 58°59' E 020°14'0 0.2
2017-Jul-19 13:54N 58°59' E 020°14'2 4.5
2017-Jul-19 13:25N 59°00' E 020°18'2 4.7
2017-Jul-19 13:00N 59°02' E 020°21'3 5.5
2017-Jul-19 12:30N 59°03' E 020°25'3 6.4
2017-Jul-19 12:00N 59°05' E 020°30'4 7.3
2017-Jul-19 11:30N 59°08' E 020°35'5 9.3
2017-Jul-19 11:00N 59°10' E 020°42'3 6.8
2017-Jul-19 10:31N 59°12' E 020°48'5 9.8
2017-Jul-19 10:00N 59°09' E 020°40'510.1
2017-Jul-19 09:30N 59°06' E 020°33'5 9.0
2017-Jul-19 08:59N 59°03' E 020°25'4 8.0
2017-Jul-19 08:29N 59°01' E 020°19'22 6.4
2017-Jul-19 05:00N 58°49' E 019°42'2 4.9
2017-Jul-19 04:30N 58°48' E 019°38'2 4.9
2017-Jul-19 04:00N 58°46' E 019°34'3 5.9
2017-Jul-19 03:25N 58°44' E 019°30'2 3.0
2017-Jul-19 02:46N 58°42' E 019°27'1 2.6
2017-Jul-19 02:23N 58°42' E 019°26'2 1.3
2017-Jul-19 01:13N 58°40' E 019°24'0 1.2
2017-Jul-19 00:55N 58°40' E 019°24'0 0.9
2017-Jul-19 00:30N 58°40' E 019°24'0 0.7
2017-Jul-19 00:00N 58°39' E 019°24'0 0.4
2017-Jul-18 23:30N 58°39' E 019°24'0 0.5
2017-Jul-18 23:00N 58°39' E 019°24'0 0.2
2017-Jul-18 21:57N 58°39' E 019°24'1 1.9
2017-Jul-18 21:24N 58°40' E 019°23'1 3.3
2017-Jul-18 21:00N 58°41' E 019°22'2 4.0
2017-Jul-18 20:30N 58°43' E 019°20'1 2.5
2017-Jul-18 20:00N 58°43' E 019°18'1 2.9
2017-Jul-18 19:30N 58°43' E 019°15'3 6.3
2017-Jul-18 18:59N 58°40' E 019°14'8 8.1
2017-Jul-18 18:00N 58°32' E 019°16'610.1
2017-Jul-18 17:23N 58°26' E 019°20'410.0
2017-Jul-18 17:00N 58°23' E 019°22'5 9.5
2017-Jul-18 16:30N 58°18' E 019°24'149 7.2
2017-Jul-17 19:40N 56°09' E 017°07'2 8.6
2017-Jul-17 19:30N 56°08' E 017°05'4 8.7
2017-Jul-17 19:00N 56°05' E 016°59'4 9.0
2017-Jul-17 18:30N 56°02' E 016°53'5 9.2
2017-Jul-17 18:00N 55°59' E 016°46'4 8.8
2017-Jul-17 17:30N 55°57' E 016°40'5 9.1
2017-Jul-17 17:00N 55°54' E 016°34'4 8.6
2017-Jul-17 16:30N 55°51' E 016°28'4 8.1
2017-Jul-17 16:00N 55°49' E 016°22'4 8.4
2017-Jul-17 15:31N 55°46' E 016°16'4 8.3
2017-Jul-17 15:00N 55°44' E 016°10'4 8.6
2017-Jul-17 14:30N 55°41' E 016°04'4 8.4
2017-Jul-17 14:00N 55°38' E 015°58'4 7.4
2017-Jul-17 13:30N 55°36' E 015°53'3 6.6
2017-Jul-17 13:00N 55°34' E 015°48'4 7.5
2017-Jul-17 12:30N 55°32' E 015°43'4 7.4
2017-Jul-17 12:00N 55°30' E 015°38'4 7.6
2017-Jul-17 11:30N 55°28' E 015°32'4 8.0
2017-Jul-17 11:00N 55°25' E 015°27'4 8.2
2017-Jul-17 10:30N 55°23' E 015°21'4 8.3
2017-Jul-17 10:00N 55°20' E 015°15'4 7.6
2017-Jul-17 09:30N 55°19' E 015°09'3 6.9
2017-Jul-17 09:00N 55°19' E 015°03'3 6.3
2017-Jul-17 08:30N 55°19' E 014°57'3 5.7
2017-Jul-17 08:00N 55°18' E 014°52'3 6.0
2017-Jul-17 07:30N 55°18' E 014°47'3 7.0
2017-Jul-17 07:00N 55°17' E 014°41'5 9.1
2017-Jul-17 06:30N 55°14' E 014°36'4 8.5
2017-Jul-17 06:00N 55°12' E 014°29'4 7.8
2017-Jul-17 05:30N 55°11' E 014°22'4 7.4
2017-Jul-17 05:00N 55°11' E 014°16'4 7.8
2017-Jul-17 04:30N 55°11' E 014°09'4 7.8
2017-Jul-17 04:00N 55°11' E 014°02'4 7.4
2017-Jul-17 03:30N 55°10' E 013°56'4 7.6
2017-Jul-17 03:00N 55°11' E 013°49'3 6.8
2017-Jul-17 02:30N 55°11' E 013°43'4 7.0
2017-Jul-17 01:58N 55°11' E 013°37'14 7.2
2017-Jul-16 23:59N 55°11' E 013°11'3 6.4
2017-Jul-16 23:29N 55°12' E 013°06'3 6.7
2017-Jul-16 22:59N 55°13' E 013°01'3 6.5
2017-Jul-16 22:30N 55°14' E 012°55'3 6.1
2017-Jul-16 22:00N 55°15' E 012°50'4 7.9
2017-Jul-16 21:30N 55°16' E 012°44'4 8.7
2017-Jul-16 20:59N 55°19' E 012°38'4 9.2
2017-Jul-16 20:30N 55°24' E 012°39'5 9.1
2017-Jul-16 20:00N 55°28' E 012°41'4 9.0
2017-Jul-16 19:30N 55°33' E 012°42'4 8.5
2017-Jul-16 19:00N 55°37' E 012°42'4 7.1
2017-Jul-16 18:30N 55°40' E 012°41'4 7.5
2017-Jul-16 18:00N 55°44' E 012°41'4 7.7
2017-Jul-16 17:30N 55°48' E 012°42'4 8.5
2017-Jul-16 17:00N 55°52' E 012°40'4 8.0
2017-Jul-16 16:30N 55°56' E 012°38'4 7.8
2017-Jul-16 16:00N 55°60' E 012°38'4 7.0
2017-Jul-16 15:30N 56°03' E 012°38'4 7.4
2017-Jul-16 15:00N 56°06' E 012°34'4 7.3
2017-Jul-16 14:30N 56°08' E 012°28'5 9.1
2017-Jul-16 14:00N 56°11' E 012°22'  

Dump ship's entire track history